Current Weather

Harry Reid Intl

Las Vegas, Nevada (KLAS)

Report from: Thursday, July 18, 2024 5:56 AM PDT
Current time: Thursday, July 18, 2024 6:21 AM PDT

Nearby weather – Weather history – Daily summaries
Weather forecast

Temperature32.2°C (90.0°F)
Heat index30.5°C (86.9°F)
Dew point9.4°C (48.9°F)
Winds 3 kts (1.5 m/s, 3.5 mph) South (180°)
Visibility10 mi. (16.1 km)
Clouds Few clouds 15,000 ft. (4,572 m)
Scattered clouds 20,000 ft. (6,096 m)
Altimeter29.94 in.Hg (1014 mB)
Relative humidity25 %
Density altitude2,342 ft. (714 m)
Sea-level pressure100.7 kPa (1007 mB, 29.74 in.Hg)
Remarks Automated weather observing station with precipitation discriminator
Pressure rising rapidly
Altocumulus castellanus clouds observed distant northeast
Flight conditions Visual Meteorological Conditions
Raw dataKLAS 181256Z 18003KT 10SM FEW150 SCT200 32/09 A2994 RMK AO2 PRESRR SLP070 ACC DSNT NE T03220094 /
An error has occurred. This application may no longer respond until reloaded. Reload 🗙